Time;durP1;ratioP1;P1;durP2;ratioP2;P2;SDS_P1;SDS_P2;PMS_P1;PMS_P2;Temp;Humidity;BMP_temperature;BMP_pressure;BME280_temperature;BME280_humidity;BME280_pressure;Samples;Min_cycle;Max_cycle;Signal;HPM_P1;HPM_P2
2023/02/08 00:00:06;;;;;;;2.75;2.47;;;19.90;64.20;;;;;;5031356;28;20197;-68
2023/02/08 00:02:33;;;;;;;3.50;2.50;;;19.90;64.20;;;;;;5029195;28;20203;-68
2023/02/08 00:05:01;;;;;;;2.80;2.53;;;19.90;64.20;;;;;;5026217;28;20216;-66
2023/02/08 00:07:28;;;;;;;2.78;2.55;;;19.90;64.20;;;;;;5039295;28;20200;-65
2023/02/08 00:09:56;;;;;;;2.50;2.20;;;19.90;64.20;;;;;;5037103;28;20192;-66
2023/02/08 00:12:23;;;;;;;2.20;2.00;;;19.90;64.30;;;;;;5031923;28;20715;-66
2023/02/08 00:14:50;;;;;;;2.40;2.10;;;19.90;64.30;;;;;;5030476;28;20206;-66
2023/02/08 00:17:16;;;;;;;2.47;2.28;;;19.90;64.30;;;;;;5027189;28;20196;-66
2023/02/08 00:19:43;;;;;;;2.13;1.92;;;19.90;64.30;;;;;;5039956;28;20200;-66
2023/02/08 00:22:10;;;;;;;2.40;2.20;;;19.90;64.30;;;;;;5036830;28;20242;-67
2023/02/08 00:24:37;;;;;;;2.40;2.20;;;19.90;64.30;;;;;;5028263;28;20199;-67
2023/02/08 00:27:05;;;;;;;2.20;2.00;;;19.90;64.40;;;;;;5045608;28;20443;-66
2023/02/08 00:29:32;;;;;;;2.42;2.22;;;19.90;64.40;;;;;;5047671;28;20207;-66
2023/02/08 00:31:59;;;;;;;6.20;2.20;;;19.90;64.40;;;;;;5022899;28;20204;-67
2023/02/08 00:34:25;;;;;;;2.53;1.90;;;19.90;64.40;;;;;;5028941;28;20211;-67
2023/02/08 00:36:52;;;;;;;3.28;2.97;;;19.90;64.50;;;;;;5034951;28;20196;-66
2023/02/08 00:39:20;;;;;;;2.90;2.70;;;19.90;64.40;;;;;;5040025;28;20671;-66
2023/02/08 00:41:46;;;;;;;2.80;2.60;;;19.90;64.40;;;;;;5031268;28;20234;-67
2023/02/08 00:44:14;;;;;;;3.42;2.33;;;19.90;64.40;;;;;;5028336;28;20204;-67
2023/02/08 00:46:41;;;;;;;2.80;2.60;;;19.90;64.40;;;;;;5029726;28;20200;-66
2023/02/08 00:49:10;;;;;;;2.38;2.08;;;19.90;64.50;;;;;;5030351;28;20196;-66
2023/02/08 00:51:36;;;;;;;2.50;2.30;;;19.90;64.50;;;;;;5025812;28;20675;-66
2023/02/08 00:54:03;;;;;;;2.00;1.90;;;19.90;64.50;;;;;;5024964;28;20239;-67
2023/02/08 00:56:30;;;;;;;1.90;1.80;;;19.80;64.40;;;;;;5028880;28;20204;-67
2023/02/08 00:58:57;;;;;;;2.35;2.17;;;19.90;64.50;;;;;;5027102;28;20211;-67
2023/02/08 01:01:25;;;;;;;2.40;2.22;;;19.90;64.50;;;;;;5029257;28;20674;-66
2023/02/08 01:03:51;;;;;;;2.55;2.35;;;19.80;64.40;;;;;;5020383;28;20204;-65
2023/02/08 01:06:21;;;;;;;2.25;2.05;;;19.90;64.50;;;;;;5029803;28;20189;-67
2023/02/08 01:08:48;;;;;;;2.53;2.33;;;19.80;64.50;;;;;;5028667;28;20207;-67
2023/02/08 01:11:17;;;;;;;2.38;2.17;;;19.80;64.40;;;;;;5028065;28;20192;-67
2023/02/08 01:13:45;;;;;;;2.00;1.90;;;19.90;64.60;;;;;;5033984;28;20223;-67
2023/02/08 01:16:13;;;;;;;2.45;1.98;;;19.80;64.50;;;;;;5028617;28;20204;-67
2023/02/08 01:18:43;;;;;;;3.55;2.15;;;19.90;64.60;;;;;;5036638;28;20204;-67
2023/02/08 01:21:11;;;;;;;2.33;1.95;;;19.80;64.50;;;;;;5039188;28;20199;-67
2023/02/08 01:23:39;;;;;;;2.08;1.88;;;19.80;64.50;;;;;;5027898;28;20200;-68
2023/02/08 01:26:06;;;;;;;2.78;2.58;;;19.80;64.50;;;;;;5046072;28;20199;-66
2023/02/08 01:28:33;;;;;;;2.17;1.98;;;19.80;64.60;;;;;;5032673;28;20208;-66
2023/02/08 01:31:04;;;;;;;3.10;2.90;;;19.80;64.60;;;;;;5032684;28;20192;-67
2023/02/08 01:33:30;;;;;;;2.60;2.40;;;19.80;64.50;;;;;;5039499;28;20212;-66
2023/02/08 01:35:59;;;;;;;2.60;2.40;;;19.80;64.60;;;;;;5035993;28;20200;-64
2023/02/08 01:38:25;;;;;;;2.58;2.38;;;19.80;64.60;;;;;;5029559;28;20200;-68
2023/02/08 01:40:52;;;;;;;2.20;2.00;;;19.80;64.60;;;;;;5042504;28;20207;-67
2023/02/08 01:43:26;;;;;;;2.53;2.33;;;19.80;64.60;;;;;;5040667;28;20207;-66
2023/02/08 01:45:53;;;;;;;2.13;1.92;;;19.80;64.60;;;;;;5032513;28;20770;-67
2023/02/08 01:48:23;;;;;;;2.22;2.03;;;19.80;64.60;;;;;;5036962;28;20219;-68
2023/02/08 01:50:58;;;;;;;2.40;2.20;;;19.80;64.60;;;;;;5033310;28;20203;-67
2023/02/08 01:53:28;;;;;;;2.35;2.15;;;19.80;64.70;;;;;;5032374;28;20216;-67
2023/02/08 01:55:57;;;;;;;1.75;1.65;;;19.80;64.70;;;;;;5035469;28;20191;-67
2023/02/08 01:58:26;;;;;;;2.15;1.95;;;19.80;64.60;;;;;;5041156;28;20196;-67
2023/02/08 02:00:53;;;;;;;2.47;2.28;;;19.80;64.60;;;;;;5034841;28;20196;-67
2023/02/08 02:03:22;;;;;;;2.47;2.28;;;19.80;64.60;;;;;;5026856;28;20201;-66
2023/02/08 02:05:52;;;;;;;1.90;1.80;;;19.80;64.70;;;;;;5029700;28;20207;-67
2023/02/08 02:08:18;;;;;;;2.13;1.92;;;19.80;64.70;;;;;;5021961;28;20682;-67
2023/02/08 02:10:49;;;;;;;2.80;2.60;;;19.80;64.70;;;;;;5040137;28;20199;-66
2023/02/08 02:13:19;;;;;;;3.33;2.45;;;19.80;64.70;;;;;;5044659;28;20310;-66
2023/02/08 02:15:46;;;;;;;2.28;2.05;;;19.80;64.70;;;;;;5025713;28;20610;-65
2023/02/08 02:18:22;;;;;;;2.78;2.10;;;19.80;64.80;;;;;;5029715;28;20208;-67
2023/02/08 02:21:13;;;;;;;2.35;2.15;;;19.80;64.80;;;;;;5032546;28;20203;-67
2023/02/08 02:24:11;;;;;;;2.65;2.10;;;19.80;64.70;;;;;;5014916;28;20195;-66
2023/02/08 02:27:09;;;;;;;1.95;1.75;;;19.80;64.80;;;;;;5049823;28;20196;-67
2023/02/08 02:30:14;;;;;;;1.83;1.73;;;19.80;64.80;;;;;;5036733;28;20211;-66
2023/02/08 02:33:02;;;;;;;2.22;2.03;;;19.80;64.80;;;;;;5027920;28;20195;-66
2023/02/08 02:35:36;;;;;;;2.28;2.05;;;19.80;64.80;;;;;;5041819;28;20199;-67
2023/02/08 02:38:12;;;;;;;2.03;1.90;;;19.80;64.80;;;;;;5025599;28;20217;-68
2023/02/08 02:40:49;;;;;;;2.17;1.98;;;19.80;64.80;;;;;;5041523;28;20686;-67
2023/02/08 02:46:15;;;;;;;2.03;1.75;;;19.80;64.80;;;;;;5024148;28;20207;-67
2023/02/08 02:48:49;;;;;;;2.65;2.45;;;19.80;64.80;;;;;;5023049;28;20210;-66
2023/02/08 02:51:22;;;;;;;2.05;1.95;;;19.80;64.80;;;;;;5027293;28;20206;-66
2023/02/08 02:53:54;;;;;;;2.20;1.90;;;19.80;64.80;;;;;;5021604;28;20224;-67
2023/02/08 02:56:26;;;;;;;2.55;2.35;;;19.80;64.90;;;;;;5026207;28;20193;-66
2023/02/08 02:58:58;;;;;;;2.15;2.00;;;19.80;64.80;;;;;;5027141;28;20200;-67
2023/02/08 03:01:25;;;;;;;1.98;1.88;;;19.80;64.80;;;;;;5029511;28;20196;-67
2023/02/08 03:03:54;;;;;;;1.50;1.40;;;19.80;65.90;;;;;;5037075;28;20226;-67
2023/02/08 03:06:36;;;;;;;2.17;2.03;;;19.80;64.90;;;;;;5043250;28;20648;-67
2023/02/08 03:09:24;;;;;;;2.28;2.08;;;19.80;64.90;;;;;;5042469;28;20210;-67
2023/02/08 03:11:57;;;;;;;1.85;1.70;;;19.80;64.90;;;;;;5027509;28;20200;-66
2023/02/08 03:14:34;;;;;;;2.20;1.92;;;19.80;64.90;;;;;;5033480;28;20240;-66
2023/02/08 03:17:12;;;;;;;1.80;1.70;;;19.80;64.90;;;;;;5037857;28;20227;-67
2023/02/08 03:19:48;;;;;;;2.25;1.75;;;19.80;64.90;;;;;;5052827;28;20200;-66
2023/02/08 03:22:19;;;;;;;2.30;2.10;;;19.80;64.90;;;;;;5030824;28;20211;-66
2023/02/08 03:24:51;;;;;;;1.90;1.80;;;19.80;64.90;;;;;;5032013;28;20539;-67
2023/02/08 03:27:24;;;;;;;1.65;1.55;;;19.80;64.90;;;;;;5041255;28;20203;-67
2023/02/08 03:29:59;;;;;;;1.90;1.80;;;19.80;64.90;;;;;;5046002;28;20211;-66
2023/02/08 03:32:34;;;;;;;2.28;2.08;;;19.80;64.90;;;;;;5034731;28;20199;-66
2023/02/08 03:35:07;;;;;;;2.10;1.85;;;19.80;64.90;;;;;;5042271;28;20606;-67
2023/02/08 03:37:37;;;;;;;2.10;2.00;;;19.80;64.90;;;;;;5033096;28;20204;-67
2023/02/08 03:40:09;;;;;;;1.88;1.75;;;19.80;64.90;;;;;;5043990;28;20543;-67
2023/02/08 03:42:37;;;;;;;2.20;2.00;;;19.80;65.00;;;;;;5045448;28;20202;-66
2023/02/08 03:45:10;;;;;;;2.10;1.90;;;19.80;64.90;;;;;;5043388;28;20565;-67
2023/02/08 03:47:40;;;;;;;2.10;2.00;;;19.80;64.90;;;;;;5036424;28;20207;-67
2023/02/08 03:50:11;;;;;;;1.58;1.45;;;19.80;65.00;;;;;;5040624;28;20205;-67
2023/02/08 03:52:39;;;;;;;1.98;1.77;;;19.80;64.90;;;;;;5034568;28;20206;-67
2023/02/08 03:55:12;;;;;;;2.13;1.92;;;19.80;65.00;;;;;;5022802;28;20228;-67
2023/02/08 03:57:44;;;;;;;2.55;2.35;;;19.80;64.90;;;;;;5035522;28;20200;-66
2023/02/08 04:00:14;;;;;;;1.40;1.30;;;19.80;64.90;;;;;;5030930;28;20196;-66
2023/02/08 04:02:46;;;;;;;1.98;1.77;;;19.80;65.00;;;;;;5025081;28;20224;-66
2023/02/08 04:05:14;;;;;;;1.65;1.55;;;19.80;65.00;;;;;;5034184;28;20207;-67
2023/02/08 04:07:41;;;;;;;2.03;1.90;;;19.80;65.00;;;;;;5024539;28;20196;-68
2023/02/08 04:10:08;;;;;;;1.60;1.50;;;19.80;65.00;;;;;;5033875;28;20198;-66
2023/02/08 04:12:35;;;;;;;2.17;1.65;;;19.80;65.00;;;;;;5044927;28;20558;-66
2023/02/08 04:15:02;;;;;;;1.95;1.77;;;19.80;65.00;;;;;;5039445;28;20577;-66
2023/02/08 04:17:28;;;;;;;2.10;1.90;;;19.80;65.00;;;;;;5034951;28;20199;-67
2023/02/08 04:19:55;;;;;;;2.00;1.90;;;19.80;65.00;;;;;;5028864;28;20670;-66
2023/02/08 04:22:23;;;;;;;1.90;1.80;;;19.80;65.00;;;;;;5034666;28;20231;-66
2023/02/08 04:24:50;;;;;;;1.83;1.73;;;19.80;65.00;;;;;;5033667;28;20199;-67
2023/02/08 04:27:16;;;;;;;2.00;1.90;;;19.80;65.00;;;;;;5048141;28;20203;-67
2023/02/08 04:29:43;;;;;;;1.63;1.25;;;19.80;65.00;;;;;;5041519;28;20216;-67
2023/02/08 04:32:10;;;;;;;1.98;1.65;;;19.80;65.00;;;;;;5029655;28;20197;-67
2023/02/08 04:34:37;;;;;;;3.45;1.85;;;19.80;65.10;;;;;;5032226;28;20216;-68
2023/02/08 04:37:04;;;;;;;2.08;1.90;;;19.80;65.00;;;;;;5029272;28;20287;-67
2023/02/08 04:39:32;;;;;;;1.52;1.42;;;19.80;65.00;;;;;;5031665;28;20192;-66
2023/02/08 04:41:59;;;;;;;1.95;1.83;;;19.80;65.00;;;;;;5048432;28;20196;-66
2023/02/08 04:44:26;;;;;;;2.25;2.05;;;19.80;65.10;;;;;;5049967;28;20203;-66
2023/02/08 04:46:54;;;;;;;2.67;2.20;;;19.80;65.10;;;;;;5025837;28;20219;-67
2023/02/08 04:49:20;;;;;;;2.28;2.08;;;19.80;65.10;;;;;;5030050;28;20200;-67
2023/02/08 04:51:47;;;;;;;1.75;1.65;;;19.80;65.10;;;;;;5030386;28;20196;-68
2023/02/08 04:54:14;;;;;;;2.13;1.80;;;19.80;65.10;;;;;;5026887;28;20239;-68
2023/02/08 04:56:42;;;;;;;1.42;1.33;;;19.80;65.10;;;;;;5030912;28;20579;-66
2023/02/08 04:59:09;;;;;;;1.42;1.33;;;19.80;65.10;;;;;;5027841;28;20214;-67
2023/02/08 05:01:37;;;;;;;2.05;1.85;;;19.80;65.10;;;;;;5029829;28;20199;-66
2023/02/08 05:04:06;;;;;;;2.25;1.85;;;19.80;65.10;;;;;;5027382;28;20208;-66
2023/02/08 05:06:35;;;;;;;1.65;1.55;;;19.80;65.10;;;;;;5028351;28;20200;-67
2023/02/08 05:09:02;;;;;;;1.90;1.55;;;19.80;65.10;;;;;;5025516;28;20200;-67
2023/02/08 05:11:28;;;;;;;1.92;1.73;;;19.80;65.10;;;;;;5029125;28;20572;-67
2023/02/08 05:13:56;;;;;;;1.73;1.63;;;19.80;65.10;;;;;;5027498;28;20223;-66
2023/02/08 05:16:23;;;;;;;1.88;1.77;;;19.80;65.10;;;;;;5037891;28;20667;-67
2023/02/08 05:18:50;;;;;;;1.50;1.40;;;19.80;65.10;;;;;;5037217;28;20208;-67
2023/02/08 05:21:17;;;;;;;2.13;1.70;;;19.80;65.10;;;;;;5036258;28;20679;-67
2023/02/08 05:23:43;;;;;;;2.50;2.30;;;19.80;65.10;;;;;;5027919;28;20574;-67
2023/02/08 05:26:11;;;;;;;2.80;1.65;;;19.80;65.10;;;;;;5044951;28;20202;-66
2023/02/08 05:28:38;;;;;;;1.60;1.50;;;19.80;65.10;;;;;;5037103;28;20203;-66
2023/02/08 05:31:14;;;;;;;1.73;1.63;;;19.80;65.10;;;;;;5029134;28;20671;-67
2023/02/08 05:33:41;;;;;;;1.67;1.58;;;19.80;65.10;;;;;;5038328;28;20206;-67
2023/02/08 05:36:09;;;;;;;1.50;1.40;;;19.80;65.10;;;;;;5039670;28;20204;-66
2023/02/08 05:38:36;;;;;;;1.98;1.67;;;19.80;65.10;;;;;;5032685;28;20203;-66
2023/02/08 05:41:02;;;;;;;2.65;1.77;;;19.80;65.10;;;;;;5045089;28;20250;-64
2023/02/08 05:43:29;;;;;;;2.03;1.88;;;19.80;65.20;;;;;;5039704;28;20582;-65
2023/02/08 05:45:56;;;;;;;2.15;1.73;;;19.80;65.20;;;;;;5034407;28;20610;-65
2023/02/08 05:48:24;;;;;;;1.55;1.45;;;19.80;65.30;;;;;;5025995;28;20209;-67
2023/02/08 05:50:51;;;;;;;1.67;1.58;;;19.80;65.30;;;;;;5044561;28;20192;-68
2023/02/08 05:53:17;;;;;;;1.80;1.50;;;19.80;65.30;;;;;;5035388;28;20203;-64
2023/02/08 05:55:45;;;;;;;1.27;1.17;;;19.80;65.30;;;;;;5042704;28;20216;-66
2023/02/08 05:58:12;;;;;;;2.03;1.83;;;19.80;65.80;;;;;;5024738;28;20200;-66
2023/02/08 06:00:39;;;;;;;5.65;1.40;;;19.80;66.20;;;;;;5021216;28;20206;-69
2023/02/08 06:03:06;;;;;;;5.80;1.98;;;19.80;65.90;;;;;;5025560;28;20671;-67
2023/02/08 06:05:34;;;;;;;2.13;1.40;;;19.80;65.70;;;;;;5032643;28;20203;-68
2023/02/08 06:08:01;;;;;;;4.82;1.42;;;19.80;65.70;;;;;;5030381;28;20200;-66
2023/02/08 06:10:27;;;;;;;3.28;2.58;;;19.90;66.00;;;;;;5032066;28;20196;-69
2023/02/08 06:12:54;;;;;;;4.72;1.70;;;19.80;65.90;;;;;;5033383;28;20656;-69
2023/02/08 06:15:21;;;;;;;3.05;2.10;;;19.80;66.10;;;;;;5036064;28;20223;-70
2023/02/08 06:17:48;;;;;;;3.72;1.85;;;19.90;66.10;;;;;;5024959;28;20196;-70
2023/02/08 06:20:14;;;;;;;10.68;2.00;;;19.90;66.20;;;;;;5049551;28;20614;-71
2023/02/08 06:22:42;;;;;;;6.10;2.13;;;19.90;66.20;;;;;;5034498;28;20212;-74
2023/02/08 06:25:09;;;;;;;10.35;2.25;;;19.90;66.40;;;;;;5032969;28;20206;-73
2023/02/08 06:27:36;;;;;;;5.18;2.70;;;19.90;66.60;;;;;;5027801;28;20561;-70
2023/02/08 06:30:03;;;;;;;13.18;2.65;;;19.90;66.90;;;;;;5037260;28;20216;-70
2023/02/08 06:32:30;;;;;;;10.85;2.63;;;19.90;67.00;;;;;;5028125;28;20207;-72
2023/02/08 06:34:57;;;;;;;8.85;2.20;;;19.90;67.30;;;;;;5039182;28;20462;-73
2023/02/08 06:37:24;;;;;;;7.65;2.60;;;19.90;67.50;;;;;;5034217;28;20615;-72
2023/02/08 06:39:52;;;;;;;9.07;2.35;;;19.90;67.60;;;;;;5040488;28;20200;-72
2023/02/08 06:42:18;;;;;;;10.40;1.98;;;19.80;67.60;;;;;;5041377;28;20192;-72
2023/02/08 06:44:46;;;;;;;2.83;1.50;;;19.80;67.50;;;;;;5040122;28;20214;-72
2023/02/08 06:47:13;;;;;;;8.93;1.98;;;19.80;67.50;;;;;;5029086;28;20656;-72
2023/02/08 06:49:40;;;;;;;3.15;1.48;;;19.80;67.40;;;;;;5032509;28;20203;-72
2023/02/08 06:52:07;;;;;;;3.10;1.80;;;19.80;67.40;;;;;;5033654;28;20681;-73
2023/02/08 06:54:33;;;;;;;6.00;1.80;;;19.70;67.20;;;;;;5032827;28;20250;-73
2023/02/08 06:57:01;;;;;;;5.20;1.88;;;19.70;67.10;;;;;;5030001;28;20670;-70
2023/02/08 06:59:29;;;;;;;7.65;1.90;;;19.70;67.30;;;;;;5031397;28;20200;-70
2023/02/08 07:01:56;;;;;;;3.75;1.63;;;19.80;67.30;;;;;;5027216;28;20207;-72
2023/02/08 07:04:22;;;;;;;2.53;2.10;;;19.80;67.20;;;;;;5029841;28;20204;-71
2023/02/08 07:06:49;;;;;;;4.00;1.90;;;19.80;67.20;;;;;;5030903;28;20193;-70
2023/02/08 07:09:16;;;;;;;3.40;1.75;;;19.80;67.10;;;;;;5029173;28;20196;-71
2023/02/08 07:11:43;;;;;;;4.68;1.77;;;19.80;67.10;;;;;;5031846;28;20196;-72
2023/02/08 07:14:14;;;;;;;2.55;1.67;;;19.80;67.10;;;;;;5031797;28;20194;-72
2023/02/08 07:16:41;;;;;;;2.55;1.80;;;19.80;67.00;;;;;;5024702;28;20573;-70
2023/02/08 07:19:08;;;;;;;2.72;1.80;;;19.80;67.00;;;;;;5028726;28;20211;-70
2023/02/08 07:21:35;;;;;;;2.90;1.75;;;19.80;66.90;;;;;;5035704;28;20582;-70
2023/02/08 07:24:01;;;;;;;2.90;2.15;;;19.80;66.90;;;;;;5030242;28;20192;-70
2023/02/08 07:26:28;;;;;;;3.70;1.77;;;19.80;66.80;;;;;;5051754;28;20192;-71
2023/02/08 07:28:55;;;;;;;1.80;1.70;;;19.80;66.80;;;;;;5050104;28;20579;-70
2023/02/08 07:31:23;;;;;;;3.08;1.90;;;19.80;66.80;;;;;;5032837;28;20232;-71
2023/02/08 07:33:50;;;;;;;2.00;1.67;;;19.80;66.80;;;;;;5030626;28;20203;-72
2023/02/08 07:36:16;;;;;;;2.53;1.33;;;19.80;66.80;;;;;;5038910;28;20223;-71
2023/02/08 07:38:43;;;;;;;2.65;1.58;;;19.80;66.80;;;;;;5036749;28;20195;-70
2023/02/08 07:41:11;;;;;;;5.68;1.85;;;19.80;66.70;;;;;;5052925;28;20212;-74
2023/02/08 07:43:39;;;;;;;2.75;1.75;;;19.80;66.70;;;;;;5053023;28;20615;-70
2023/02/08 07:46:07;;;;;;;4.78;2.17;;;19.80;66.70;;;;;;5030423;28;20200;-72
2023/02/08 07:48:36;;;;;;;1.77;1.52;;;19.80;66.70;;;;;;5030432;28;20203;-71
2023/02/08 07:51:03;;;;;;;1.52;1.42;;;19.80;66.60;;;;;;5037626;28;20196;-70
2023/02/08 07:53:30;;;;;;;2.50;1.52;;;19.80;66.60;;;;;;5034840;28;20196;-69
2023/02/08 07:55:57;;;;;;;2.30;1.85;;;19.80;66.60;;;;;;5045584;28;20224;-70
2023/02/08 07:58:24;;;;;;;2.00;1.58;;;19.80;66.60;;;;;;5028072;28;20192;-73
2023/02/08 08:00:52;;;;;;;4.15;2.35;;;19.80;66.60;;;;;;5033471;28;20219;-71
2023/02/08 08:03:19;;;;;;;2.17;2.00;;;19.80;66.40;;;;;;5034815;28;20192;-70
2023/02/08 08:05:47;;;;;;;1.70;1.52;;;19.80;66.40;;;;;;5043294;28;20207;-71
2023/02/08 08:08:13;;;;;;;2.80;1.98;;;19.80;66.40;;;;;;5040209;28;20208;-72
2023/02/08 08:10:40;;;;;;;2.17;1.98;;;19.80;66.40;;;;;;5033707;28;20572;-68
2023/02/08 08:13:07;;;;;;;2.55;2.35;;;19.80;66.40;;;;;;5028150;28;20204;-71
2023/02/08 08:15:34;;;;;;;3.22;3.03;;;19.70;66.20;;;;;;5027117;28;21017;-71
2023/02/08 08:18:01;;;;;;;2.63;2.42;;;19.70;66.20;;;;;;5025467;28;20204;-69
2023/02/08 08:20:28;;;;;;;3.47;3.17;;;19.70;66.20;;;;;;5022389;28;20204;-72
2023/02/08 08:22:56;;;;;;;4.05;3.53;;;19.70;66.20;;;;;;5019355;28;20223;-69
2023/02/08 08:25:22;;;;;;;3.78;2.70;;;19.70;65.80;;;;;;5018766;28;20208;-71
2023/02/08 08:27:49;;;;;;;3.65;3.28;;;19.70;65.90;;;;;;5031325;28;20204;-73
2023/02/08 08:30:17;;;;;;;2.90;2.70;;;19.70;65.90;;;;;;5027198;28;20337;-70
2023/02/08 08:32:44;;;;;;;3.50;3.20;;;19.70;65.80;;;;;;5020431;28;20215;-70
2023/02/08 08:35:11;;;;;;;3.85;3.58;;;19.70;65.80;;;;;;5026590;28;20224;-71
2023/02/08 08:37:38;;;;;;;5.20;3.20;;;19.70;65.70;;;;;;5031421;28;20189;-70
2023/02/08 08:40:07;;;;;;;4.38;3.47;;;19.70;65.60;;;;;;5025499;28;20203;-73
2023/02/08 08:42:35;;;;;;;3.83;3.53;;;19.70;65.50;;;;;;5034060;28;20214;-70
2023/02/08 08:45:01;;;;;;;3.95;2.95;;;19.70;65.40;;;;;;5029572;28;20223;-69
2023/02/08 08:47:28;;;;;;;3.08;2.85;;;19.70;65.20;;;;;;5027754;28;20199;-72
2023/02/08 08:49:55;;;;;;;3.15;2.83;;;19.70;65.10;;;;;;5027430;28;20718;-70
2023/02/08 08:52:22;;;;;;;3.33;3.08;;;19.70;65.10;;;;;;5027524;28;20678;-71
2023/02/08 08:54:51;;;;;;;3.60;3.10;;;19.70;65.70;;;;;;5027732;28;20441;-72
2023/02/08 08:57:19;;;;;;;3.50;3.20;;;19.70;64.70;;;;;;5029146;28;21451;-70
2023/02/08 08:59:46;;;;;;;3.97;3.67;;;19.70;64.70;;;;;;5030201;28;20311;-68
2023/02/08 09:02:14;;;;;;;3.30;3.00;;;19.70;64.70;;;;;;5020311;28;20291;-70
2023/02/08 09:04:41;;;;;;;3.40;3.17;;;19.70;64.60;;;;;;5021566;28;20200;-69
2023/02/08 09:07:09;;;;;;;3.38;3.08;;;19.70;64.60;;;;;;5019136;28;20694;-68
2023/02/08 09:09:36;;;;;;;3.38;3.08;;;19.70;64.60;;;;;;5021663;28;20591;-68
2023/02/08 09:12:04;;;;;;;4.10;3.80;;;19.70;64.70;;;;;;5029426;28;20208;-70
2023/02/08 09:14:32;;;;;;;2.83;2.63;;;19.70;64.60;;;;;;5029802;28;20207;-68
2023/02/08 09:16:59;;;;;;;2.75;2.55;;;19.70;64.70;;;;;;5020145;28;20228;-69
2023/02/08 09:19:26;;;;;;;3.10;2.80;;;19.70;64.70;;;;;;5026980;28;20542;-69
2023/02/08 09:21:53;;;;;;;3.10;2.90;;;19.70;64.70;;;;;;5029711;28;20771;-70
2023/02/08 09:24:20;;;;;;;3.00;2.80;;;19.70;64.70;;;;;;5025589;28;20196;-69
2023/02/08 09:26:47;;;;;;;2.97;2.78;;;19.70;64.70;;;;;;5029480;28;20200;-71
2023/02/08 09:29:13;;;;;;;3.70;3.40;;;19.80;64.80;;;;;;5027297;28;20212;-70
2023/02/08 09:31:41;;;;;;;2.75;2.55;;;19.80;64.80;;;;;;5028341;28;20200;-69
2023/02/08 09:34:09;;;;;;;3.25;2.80;;;19.80;64.90;;;;;;5032014;28;20201;-68
2023/02/08 09:36:38;;;;;;;3.10;2.90;;;19.80;64.80;;;;;;5026464;28;20216;-68
2023/02/08 09:39:08;;;;;;;3.55;3.08;;;19.80;64.90;;;;;;5028173;28;20202;-69
2023/02/08 09:41:57;;;;;;;3.70;3.03;;;19.80;64.80;;;;;;5033659;28;20204;-68
2023/02/08 09:44:31;;;;;;;2.80;2.60;;;19.80;64.90;;;;;;5033485;28;20204;-69
2023/02/08 09:47:05;;;;;;;3.47;3.15;;;19.80;64.90;;;;;;5033261;28;20200;-68
2023/02/08 09:49:37;;;;;;;3.20;3.00;;;19.80;64.90;;;;;;5041998;28;20652;-68
2023/02/08 09:52:10;;;;;;;2.53;2.33;;;19.80;65.00;;;;;;5037561;28;20200;-68
2023/02/08 09:54:41;;;;;;;2.53;2.33;;;19.80;65.00;;;;;;5028944;28;20563;-68
2023/02/08 09:57:13;;;;;;;3.10;2.90;;;19.80;65.00;;;;;;5039207;28;20227;-68
2023/02/08 09:59:46;;;;;;;2.42;2.22;;;19.80;65.00;;;;;;5034490;28;20198;-71
2023/02/08 10:02:23;;;;;;;3.33;3.08;;;19.80;65.00;;;;;;5026505;28;20435;-69
2023/02/08 10:04:57;;;;;;;3.00;2.70;;;19.80;65.00;;;;;;5025963;28;20203;-69
2023/02/08 10:07:25;;;;;;;3.17;2.90;;;19.80;65.00;;;;;;5018800;28;20199;-69
2023/02/08 10:09:54;;;;;;;3.20;3.00;;;19.80;64.90;;;;;;5018915;28;20243;-70
2023/02/08 10:12:32;;;;;;;2.75;2.50;;;19.70;64.60;;;;;;5020957;28;20200;-69
2023/02/08 10:15:13;;;;;;;4.88;2.80;;;19.70;64.50;;;;;;5016952;28;20199;-69
2023/02/08 10:18:10;;;;;;;2.90;2.70;;;19.70;64.30;;;;;;5022630;28;20261;-69
2023/02/08 10:20:52;;;;;;;3.15;2.85;;;19.70;64.30;;;;;;5026416;28;20188;-69
2023/02/08 10:23:34;;;;;;;2.78;2.45;;;19.70;64.20;;;;;;5023749;28;20588;-69
2023/02/08 10:26:10;;;;;;;2.95;2.75;;;19.70;64.10;;;;;;5017079;28;20234;-70
2023/02/08 10:28:53;;;;;;;2.67;2.47;;;19.70;64.10;;;;;;5016971;28;20207;-69
2023/02/08 10:31:33;;;;;;;3.92;3.53;;;19.70;64.00;;;;;;5021985;28;20196;-69
2023/02/08 10:34:09;;;;;;;4.25;3.25;;;19.70;64.00;;;;;;5017081;28;20575;-69
2023/02/08 10:36:40;;;;;;;2.60;2.40;;;19.70;64.00;;;;;;5018457;28;20235;-69
2023/02/08 10:39:15;;;;;;;2.65;2.45;;;19.70;64.10;;;;;;5016052;28;20204;-70
2023/02/08 10:41:43;;;;;;;2.90;2.70;;;19.70;64.10;;;;;;5021375;28;20587;-69
2023/02/08 10:44:20;;;;;;;2.75;2.55;;;19.70;64.10;;;;;;5026046;28;20199;-69
2023/02/08 10:46:52;;;;;;;2.53;2.33;;;19.70;64.20;;;;;;5018944;28;20204;-65
2023/02/08 10:49:25;;;;;;;2.80;2.60;;;19.70;64.20;;;;;;5019076;28;20196;-65
2023/02/08 10:51:53;;;;;;;2.65;2.45;;;19.70;64.20;;;;;;5027404;28;20530;-66
2023/02/08 10:54:20;;;;;;;2.50;2.30;;;19.70;64.30;;;;;;5020246;28;20192;-67
2023/02/08 10:56:50;;;;;;;2.50;2.30;;;19.70;64.50;;;;;;5016572;28;20243;-65
2023/02/08 10:59:22;;;;;;;6.60;2.42;;;19.70;64.60;;;;;;5017849;28;20204;-67
2023/02/08 11:01:49;;;;;;;2.67;2.38;;;19.70;64.70;;;;;;5016990;28;20204;-67
2023/02/08 11:04:17;;;;;;;6.20;2.47;;;19.80;64.90;;;;;;5018085;28;20203;-71
2023/02/08 11:06:46;;;;;;;5.32;2.75;;;19.80;65.00;;;;;;5018478;28;20216;-63
2023/02/08 11:09:27;;;;;;;14.60;2.60;;;19.80;65.20;;;;;;5013525;28;20200;-66
2023/02/08 11:11:55;;;;;;;3.33;2.58;;;19.80;65.40;;;;;;5023560;28;20656;-69
2023/02/08 11:14:26;;;;;;;2.63;2.42;;;19.80;65.60;;;;;;5019406;28;20195;-68
2023/02/08 11:16:54;;;;;;;3.35;2.00;;;19.80;65.70;;;;;;5018959;28;20227;-66
2023/02/08 11:19:29;;;;;;;2.53;2.33;;;19.90;65.80;;;;;;5020601;28;20200;-75
2023/02/08 11:21:57;;;;;;;2.30;2.10;;;19.90;65.90;;;;;;5018624;28;20224;-75
2023/02/08 11:24:30;;;;;;;2.67;2.45;;;19.90;65.90;;;;;;5020851;28;20193;-71
2023/02/08 11:26:57;;;;;;;2.65;2.10;;;19.90;66.00;;;;;;5020792;28;20200;-70
2023/02/08 11:29:25;;;;;;;2.40;2.20;;;19.90;66.10;;;;;;5020562;28;20233;-66
2023/02/08 11:31:59;;;;;;;2.30;2.20;;;19.90;66.10;;;;;;5020306;28;20281;-66
2023/02/08 11:34:28;;;;;;;3.30;2.55;;;19.90;67.10;;;;;;5027180;28;20294;-65
2023/02/08 11:36:58;;;;;;;3.60;2.35;;;19.90;66.20;;;;;;5019487;28;20216;-66
2023/02/08 11:39:29;;;;;;;4.18;2.75;;;19.90;66.10;;;;;;5020156;28;20197;-71
2023/02/08 11:41:59;;;;;;;1.88;1.77;;;19.90;66.20;;;;;;5026100;28;20204;-66
2023/02/08 11:44:29;;;;;;;2.67;2.10;;;19.90;66.20;;;;;;5020787;28;20200;-66
2023/02/08 11:47:00;;;;;;;2.47;2.15;;;19.90;66.30;;;;;;5019524;28;20204;-69
2023/02/08 11:49:35;;;;;;;2.65;2.45;;;19.90;67.10;;;;;;5018491;28;20200;-73
2023/02/08 11:52:05;;;;;;;2.47;2.28;;;20.00;66.50;;;;;;5033660;28;20196;-70
2023/02/08 11:54:34;;;;;;;2.30;2.13;;;20.00;66.50;;;;;;5020787;28;20197;-69
2023/02/08 11:57:02;;;;;;;2.42;2.22;;;20.00;66.50;;;;;;5023512;28;20220;-64
2023/02/08 11:59:29;;;;;;;2.08;1.92;;;20.00;66.50;;;;;;5019243;28;20218;-63
2023/02/08 12:01:56;;;;;;;2.50;2.30;;;20.00;66.40;;;;;;5019047;28;20192;-68
2023/02/08 12:04:22;;;;;;;3.20;2.90;;;20.00;66.40;;;;;;5016723;28;20195;-62
2023/02/08 12:07:21;;;;;;;3.00;2.25;;;20.00;66.40;;;;;;5014391;28;20196;-67
2023/02/08 12:10:13;;;;;;;4.45;2.30;;;20.00;66.40;;;;;;5011938;28;20192;-63
2023/02/08 12:12:59;;;;;;;2.33;2.13;;;20.00;66.30;;;;;;5017762;28;20598;-74
2023/02/08 12:15:36;;;;;;;2.90;2.00;;;20.00;66.30;;;;;;5015150;28;20203;-68
2023/02/08 12:18:25;;;;;;;1.98;1.75;;;20.00;66.20;;;;;;5016226;28;20199;-64
2023/02/08 12:20:59;;;;;;;2.53;2.33;;;20.00;66.20;;;;;;5015737;28;20200;-67
2023/02/08 12:23:55;;;;;;;1.92;1.83;;;20.00;66.20;;;;;;5012564;28;20195;-68
2023/02/08 12:26:43;;;;;;;2.22;2.05;;;20.00;67.00;;;;;;5014612;28;20291;-63
2023/02/08 12:29:25;;;;;;;2.42;2.22;;;20.00;66.10;;;;;;5014087;28;20207;-66
2023/02/08 12:32:10;;;;;;;2.40;2.20;;;20.00;66.10;;;;;;5012258;28;20201;-70
2023/02/08 12:34:52;;;;;;;2.63;2.33;;;20.10;66.20;;;;;;5017446;28;20211;-68
2023/02/08 12:40:49;;;;;;;2.00;1.90;;;20.10;66.20;;;;;;5018105;28;20860;-71
2023/02/08 12:43:32;;;;;;;3.05;2.00;;;20.10;66.20;;;;;;5022629;28;20200;-72
2023/02/08 12:46:21;;;;;;;2.00;1.90;;;20.10;66.30;;;;;;5022441;28;21075;-69
2023/02/08 12:49:01;;;;;;;1.90;1.80;;;20.20;66.50;;;;;;5021328;28;20203;-67
2023/02/08 12:51:35;;;;;;;2.75;2.25;;;20.20;66.60;;;;;;5024938;28;20200;-67
2023/02/08 12:54:09;;;;;;;3.25;1.88;;;20.20;66.70;;;;;;5017878;28;20195;-68
2023/02/08 12:56:40;;;;;;;2.10;1.90;;;20.20;66.70;;;;;;5021454;28;20319;-74
2023/02/08 12:59:19;;;;;;;2.40;2.20;;;20.20;66.70;;;;;;5020683;28;20199;-71
2023/02/08 13:01:50;;;;;;;2.13;1.92;;;20.20;66.80;;;;;;5020821;28;20328;-72
2023/02/08 13:04:23;;;;;;;1.50;1.40;;;20.20;66.80;;;;;;5022530;28;20239;-75
2023/02/08 13:06:55;;;;;;;2.40;2.08;;;20.20;66.90;;;;;;5020966;28;20200;-70